createdAt,value
2022-08-05T00:04:56.756Z,100833.41
2022-08-05T00:09:58.235Z,100832.03
2022-08-05T00:15:00.229Z,100835.38
2022-08-05T00:20:21.704Z,100828.00
2022-08-05T00:25:23.192Z,100839.50
2022-08-05T00:30:28.962Z,100817.22
2022-08-05T00:35:33.653Z,100824.84
2022-08-05T00:40:46.995Z,100816.81
2022-08-05T00:45:55.264Z,100823.59
2022-08-05T00:50:56.940Z,100834.88
2022-08-05T00:55:58.508Z,100826.84
2022-08-05T01:01:00.130Z,100842.06
2022-08-05T01:06:03.813Z,100832.53
2022-08-05T01:11:21.750Z,100837.53
2022-08-05T01:16:49.440Z,100808.78
2022-08-05T01:22:18.848Z,100821.59
2022-08-05T01:27:34.992Z,100819.66
2022-08-05T01:32:56.265Z,100825.16
2022-08-05T01:38:00.748Z,100853.28
2022-08-05T01:43:03.958Z,100889.59
2022-08-05T01:48:10.439Z,100929.94
2022-08-05T01:53:13.821Z,100952.72
2022-08-05T01:58:16.941Z,100945.56
2022-08-05T02:03:29.030Z,100952.44
2022-08-05T02:08:40.776Z,100945.72
2022-08-05T02:14:04.816Z,100959.72
2022-08-05T02:19:18.957Z,100959.66
2022-08-05T02:24:27.602Z,100954.03
2022-08-05T02:30:00.059Z,100939.44
2022-08-05T02:34:55.263Z,100915.13
2022-08-05T02:39:57.399Z,100915.63
2022-08-05T02:45:00.762Z,100869.91
2022-08-05T02:50:05.196Z,100823.22
2022-08-05T02:55:10.850Z,100794.75
2022-08-05T03:00:13.441Z,100750.63
2022-08-05T03:05:15.941Z,100798.56
2022-08-05T03:10:21.950Z,100825.81
2022-08-05T03:15:26.338Z,100822.38
2022-08-05T03:20:27.848Z,100860.41
2022-08-05T03:25:33.788Z,100901.63
2022-08-05T03:30:51.401Z,100918.22
2022-08-05T03:35:57.876Z,100928.66
2022-08-05T03:40:59.657Z,100911.00
2022-08-05T03:46:08.246Z,100904.22
2022-08-05T03:52:38.840Z,100903.56
2022-08-05T03:56:42.051Z,100884.28
2022-08-05T04:01:47.828Z,100879.06
2022-08-05T04:06:51.342Z,100870.59
2022-08-05T04:11:56.779Z,100850.88
2022-08-05T04:17:00.644Z,100854.09
2022-08-05T04:22:08.281Z,100849.22
2022-08-05T04:27:13.641Z,100865.66
2022-08-05T04:32:15.678Z,100853.56
2022-08-05T04:38:00.672Z,100850.38
2022-08-05T04:42:54.400Z,100844.28
2022-08-05T04:48:06.946Z,100853.56
2022-08-05T04:53:13.183Z,100869.34
2022-08-05T04:58:21.581Z,100855.19
2022-08-05T05:03:23.277Z,100866.53
2022-08-05T05:08:26.574Z,100871.94
2022-08-05T05:13:43.055Z,100871.31
2022-08-05T05:19:02.579Z,100882.84
2022-08-05T05:24:08.993Z,100891.66
2022-08-05T05:29:14.848Z,100890.13
2022-08-05T05:34:21.191Z,100896.56
2022-08-05T05:39:25.801Z,100902.59
2022-08-05T05:44:42.979Z,100910.59
2022-08-05T05:49:45.878Z,100896.53
2022-08-05T05:55:07.501Z,100894.75
2022-08-05T06:00:19.559Z,100924.19
2022-08-05T06:05:21.355Z,100935.75
2022-08-05T06:10:23.697Z,100924.34
2022-08-05T06:15:25.858Z,100936.91
2022-08-05T06:20:47.881Z,100942.31
2022-08-05T06:26:12.299Z,100959.88
2022-08-05T06:31:17.870Z,100966.56
2022-08-05T06:36:19.804Z,100971.31
2022-08-05T06:41:27.599Z,100971.91
2022-08-05T06:46:30.678Z,100960.03
2022-08-05T06:51:32.477Z,100960.63
2022-08-05T06:56:34.956Z,100980.50
2022-08-05T07:01:37.341Z,100977.00
2022-08-05T07:06:42.599Z,100995.13
2022-08-05T07:11:49.183Z,101003.06
2022-08-05T07:18:00.305Z,101021.81
2022-08-05T07:22:12.803Z,101018.63
2022-08-05T07:27:17.346Z,101028.59
2022-08-05T07:32:18.945Z,101046.13
2022-08-05T07:37:29.128Z,101049.44
2022-08-05T07:42:39.026Z,101055.56
2022-08-05T07:47:45.684Z,101059.31
2022-08-05T07:52:47.253Z,101065.69
2022-08-05T07:58:02.118Z,101080.94
2022-08-05T08:03:15.252Z,101088.31
2022-08-05T08:08:19.926Z,101091.31
2022-08-05T08:13:29.239Z,101104.34
2022-08-05T08:18:30.956Z,101098.94
2022-08-05T08:24:01.606Z,101111.66
2022-08-05T08:28:59.050Z,101113.75
2022-08-05T08:34:01.453Z,101114.59
2022-08-05T08:39:03.345Z,101119.94
2022-08-05T08:45:18.095Z,101118.72
2022-08-05T08:50:11.305Z,101121.47
2022-08-05T08:54:55.843Z,101128.31
2022-08-05T08:59:59.544Z,101144.81
2022-08-05T09:05:17.928Z,101150.50
2022-08-05T09:10:21.567Z,101157.66
2022-08-05T09:15:28.935Z,101169.31
2022-08-05T09:20:37.201Z,101178.69
2022-08-05T09:26:02.278Z,101178.53
2022-08-05T09:31:43.863Z,101194.47
2022-08-05T09:36:55.989Z,101206.78
2022-08-05T09:42:03.946Z,101211.69
2022-08-05T09:47:15.403Z,101211.41
2022-08-05T09:52:21.900Z,101222.19
2022-08-05T09:57:39.599Z,101222.25
2022-08-05T10:02:51.652Z,101231.75
2022-08-05T10:08:34.839Z,101235.31
2022-08-05T10:13:27.030Z,101255.28
2022-08-05T10:18:34.558Z,101256.44
2022-08-05T10:23:55.507Z,101251.78
2022-08-05T10:28:59.788Z,101251.69
2022-08-05T10:34:01.816Z,101257.16
2022-08-05T10:39:24.043Z,101260.50
2022-08-05T10:44:28.084Z,101261.38
2022-08-05T10:49:33.348Z,101257.19
2022-08-05T10:55:10.267Z,101267.75
2022-08-05T11:00:23.180Z,101267.09
2022-08-05T11:05:29.101Z,101273.16
2022-08-05T11:10:37.010Z,101283.19
2022-08-05T11:15:59.425Z,101275.28
2022-08-05T11:21:06.264Z,101282.06
2022-08-05T11:26:29.110Z,101278.59
2022-08-05T11:31:57.043Z,101287.06
2022-08-05T11:36:56.375Z,101292.81
2022-08-05T11:42:02.345Z,101293.81
2022-08-05T11:47:11.746Z,101295.78
2022-08-05T11:52:46.062Z,101287.06
2022-08-05T11:58:08.679Z,101297.72
2022-08-05T12:03:29.308Z,101298.59
2022-08-05T12:08:39.669Z,101285.09
2022-08-05T12:14:04.523Z,101299.31
2022-08-05T12:19:08.363Z,101290.38
2022-08-05T12:24:14.045Z,101293.56
2022-08-05T12:29:23.083Z,101296.59
2022-08-05T12:34:28.860Z,101303.44
2022-08-05T12:39:37.449Z,101312.97
2022-08-05T12:44:40.865Z,101317.44
2022-08-05T12:50:01.981Z,101324.19
2022-08-05T12:55:22.036Z,101352.22
2022-08-05T13:01:59.953Z,101368.66
2022-08-05T13:05:48.574Z,101376.53
2022-08-05T13:10:51.608Z,101380.81
2022-08-05T13:15:54.312Z,101383.44
2022-08-05T13:20:55.853Z,101382.28
2022-08-05T13:26:01.239Z,101380.19
2022-08-05T13:31:11.165Z,101387.28
2022-08-05T13:36:16.377Z,101387.78
2022-08-05T13:41:18.040Z,101398.31
2022-08-05T13:46:35.722Z,101407.19
2022-08-05T13:51:45.775Z,101405.25
2022-08-05T13:56:50.558Z,101397.84
2022-08-05T14:01:58.850Z,101399.59
2022-08-05T14:07:12.056Z,101406.56
2022-08-05T14:12:32.449Z,101406.13
2022-08-05T14:17:35.048Z,101405.25
2022-08-05T14:22:37.122Z,101409.81
2022-08-05T14:27:38.728Z,101409.53
2022-08-05T14:32:49.074Z,101419.94
2022-08-05T14:37:55.002Z,101415.66
2022-08-05T14:42:56.908Z,101415.13
2022-08-05T14:48:03.046Z,101421.75
2022-08-05T14:53:06.869Z,101416.13
2022-08-05T14:58:12.135Z,101422.44
2022-08-05T15:03:15.327Z,101416.00
2022-08-05T15:08:58.263Z,101423.19
2022-08-05T15:13:45.993Z,101424.81
2022-08-05T15:18:48.312Z,101434.41
2022-08-05T15:23:49.967Z,101431.91
2022-08-05T15:28:52.906Z,101429.84
2022-08-05T15:34:19.353Z,101432.84
2022-08-05T15:40:58.613Z,101432.75
2022-08-05T15:44:43.628Z,101425.06
2022-08-05T15:49:58.570Z,101430.38
2022-08-05T15:55:01.239Z,101429.72
2022-08-05T16:00:04.883Z,101439.44
2022-08-05T16:05:09.678Z,101437.88
2022-08-05T16:10:12.869Z,101456.56
2022-08-05T16:15:18.166Z,101455.16
2022-08-05T16:20:20.457Z,101456.53
2022-08-05T16:25:21.940Z,101463.06
2022-08-05T16:30:38.620Z,101458.28
2022-08-05T16:35:42.242Z,101469.34
2022-08-05T16:40:51.953Z,101474.03
2022-08-05T16:46:03.613Z,101488.78
2022-08-05T16:51:15.742Z,101495.00
2022-08-05T16:56:17.840Z,101496.56
2022-08-05T17:01:21.560Z,101506.63
2022-08-05T17:06:25.828Z,101513.09
2022-08-05T17:11:27.661Z,101518.81
2022-08-05T17:16:32.860Z,101523.84
2022-08-05T17:21:39.343Z,101526.63
2022-08-05T17:26:41.565Z,101524.88
2022-08-05T17:31:57.047Z,101530.91
2022-08-05T17:37:00.439Z,101537.84
2022-08-05T17:42:18.316Z,101548.09
2022-08-05T17:47:23.085Z,101551.91
2022-08-05T17:52:25.652Z,101553.47
2022-08-05T17:57:28.634Z,101556.78
2022-08-05T18:02:30.224Z,101566.63
2022-08-05T18:07:41.273Z,101567.63
2022-08-05T18:12:43.860Z,101585.41
2022-08-05T18:17:58.713Z,101599.13
2022-08-05T18:23:09.524Z,101612.81
2022-08-05T18:28:16.153Z,101615.00
2022-08-05T18:33:23.167Z,101625.81
2022-08-05T18:38:26.260Z,101642.81
2022-08-05T18:43:31.533Z,101641.88
2022-08-05T18:48:43.260Z,101642.06
2022-08-05T18:53:50.029Z,101653.50
2022-08-05T18:58:54.788Z,101652.72
2022-08-05T19:04:02.596Z,101661.63
2022-08-05T19:09:07.072Z,101668.69
2022-08-05T19:14:53.379Z,101680.84
2022-08-05T19:19:30.599Z,101688.72
2022-08-05T19:24:34.390Z,101694.28
2022-08-05T19:29:37.420Z,101695.75
2022-08-05T19:34:40.606Z,101703.41
2022-08-05T19:39:45.670Z,101719.19
2022-08-05T19:44:53.601Z,101731.81
2022-08-05T19:50:00.741Z,101744.41
2022-08-05T19:55:07.298Z,101748.09
2022-08-05T20:00:24.608Z,101755.19
2022-08-05T20:05:28.971Z,101765.78
2022-08-05T20:10:45.088Z,101760.75
2022-08-05T20:15:55.835Z,101774.53
2022-08-05T20:20:59.927Z,101783.88
2022-08-05T20:26:02.793Z,101789.16
2022-08-05T20:31:04.636Z,101796.53
2022-08-05T20:36:06.685Z,101817.22
2022-08-05T20:41:11.696Z,101808.00
2022-08-05T20:46:25.614Z,101809.69
2022-08-05T20:51:27.162Z,101815.00
2022-08-05T20:56:32.954Z,101821.59
2022-08-05T21:01:44.829Z,101833.31
2022-08-05T21:06:46.418Z,101844.72
2022-08-05T21:12:09.094Z,101842.84
2022-08-05T21:17:09.746Z,101849.16
2022-08-05T21:22:11.261Z,101840.97
2022-08-05T21:27:13.420Z,101857.34
2022-08-05T21:32:26.784Z,101866.75
2022-08-05T21:37:28.907Z,101856.63
2022-08-05T21:42:43.815Z,101864.25
2022-08-05T21:47:55.586Z,101876.59
2022-08-05T21:53:08.416Z,101867.13
2022-08-05T21:58:19.294Z,101881.31
2022-08-05T22:03:52.405Z,101880.13
2022-08-05T22:08:42.952Z,101889.00
2022-08-05T22:14:32.559Z,101890.22
2022-08-05T22:19:15.017Z,101894.38
2022-08-05T22:24:52.009Z,101892.41
2022-08-05T22:29:55.124Z,101907.56
2022-08-05T22:34:56.719Z,101902.78
2022-08-05T22:39:58.427Z,101910.66
2022-08-05T22:45:00.091Z,101913.03
2022-08-05T22:50:20.078Z,101921.16
2022-08-05T22:55:26.018Z,101921.28
2022-08-05T23:00:27.981Z,101922.34
2022-08-05T23:05:29.498Z,101936.19
2022-08-05T23:10:37.441Z,101931.38
2022-08-05T23:15:40.483Z,101938.75
2022-08-05T23:20:43.218Z,101951.69
2022-08-05T23:25:51.634Z,101952.59
2022-08-05T23:31:06.999Z,101953.06
2022-08-05T23:36:19.292Z,101960.53
2022-08-05T23:41:20.871Z,101962.16
2022-08-05T23:46:24.463Z,101967.06
2022-08-05T23:51:26.267Z,101965.56
2022-08-05T23:56:27.756Z,101966.00
